KCLM

William R Fairchild International Airport

Port Angeles, Washington, USA
METAR KCLM 221408Z AUTO 00000KT 3SM BR CLR 02/01 A2999 RMK AO2 T00170011 $
Observed Flight Rules
Oct-22 @ 14:08 UTC (35 minutes ago) Marginal Visual Flight Rules
Visibility Clouds Conditions
3 miles
  • Clear skies
  • Mist
Temperatures Readings
Current 2°C / 36°F
Dewpoint 1°C / 34°F
Humidity 93%
Altimeter 29.99" Hg
Pressure 1016 hPa
Elevation 85
METAR KCLM 221408Z AUTO 00000KT 3SM BR CLR 02/01 A2999 RMK AO2 T00170011 $
Observed Flight Rules
Oct-22 @ 14:08 UTC
(35 minutes ago)
MVFR
Clouds
  • Clear skies
Conditions
  • Mist
Temperature Dewpoint
2°C / 36°F 1°C / 34°F
Humidity Altimeter Pressure
93% 29.99" Hg 1016 hPa